sensor_id;sensor_type;location;lat;lon;timestamp;pressure;altitude;pressure_sealevel;temperature;humidity
72685;BME280;61365;52.162;4.500;2023-04-07T00:02:06;101485.09;;;9.37;86.90
72685;BME280;61365;52.162;4.500;2023-04-07T00:04:32;101486.88;;;9.38;86.14
72685;BME280;61365;52.162;4.500;2023-04-07T00:06:58;101485.06;;;9.32;86.25
72685;BME280;61365;52.162;4.500;2023-04-07T00:09:24;101496.53;;;9.43;86.40
72685;BME280;61365;52.162;4.500;2023-04-07T00:11:50;101482.63;;;9.48;87.05
72685;BME280;61365;52.162;4.500;2023-04-07T00:14:17;101487.81;;;9.43;86.55
72685;BME280;61365;52.162;4.500;2023-04-07T00:16:43;101487.69;;;9.34;86.06
72685;BME280;61365;52.162;4.500;2023-04-07T00:19:09;101487.63;;;9.30;86.46
72685;BME280;61365;52.162;4.500;2023-04-07T00:21:35;101481.31;;;9.18;87.23
72685;BME280;61365;52.162;4.500;2023-04-07T00:24:01;101490.00;;;9.13;86.51
72685;BME280;61365;52.162;4.500;2023-04-07T00:26:27;101488.06;;;9.01;87.11
72685;BME280;61365;52.162;4.500;2023-04-07T00:28:56;101491.53;;;9.00;87.70
72685;BME280;61365;52.162;4.500;2023-04-07T00:31:23;101492.44;;;9.01;87.27
72685;BME280;61365;52.162;4.500;2023-04-07T00:33:49;101497.41;;;8.85;87.45
72685;BME280;61365;52.162;4.500;2023-04-07T00:36:15;101501.53;;;8.71;88.88
72685;BME280;61365;52.162;4.500;2023-04-07T00:38:41;101501.59;;;8.74;89.71
72685;BME280;61365;52.162;4.500;2023-04-07T00:41:07;101493.69;;;8.71;90.19
72685;BME280;61365;52.162;4.500;2023-04-07T00:43:33;101505.00;;;8.70;89.71
72685;BME280;61365;52.162;4.500;2023-04-07T00:46:00;101505.88;;;8.70;89.57
72685;BME280;61365;52.162;4.500;2023-04-07T00:48:26;101500.69;;;8.72;89.68
72685;BME280;61365;52.162;4.500;2023-04-07T00:50:52;101498.91;;;8.71;89.14
72685;BME280;61365;52.162;4.500;2023-04-07T00:53:18;101504.06;;;8.66;89.63
72685;BME280;61365;52.162;4.500;2023-04-07T00:55:45;101511.13;;;8.72;89.76
72685;BME280;61365;52.162;4.500;2023-04-07T00:58:11;101498.13;;;8.77;89.78
72685;BME280;61365;52.162;4.500;2023-04-07T01:01:21;101505.22;;;8.84;89.78
72685;BME280;61365;52.162;4.500;2023-04-07T01:03:44;101506.94;;;8.80;89.28
72685;BME280;61365;52.162;4.500;2023-04-07T01:06:15;101508.72;;;8.83;89.34
72685;BME280;61365;52.162;4.500;2023-04-07T01:09:18;101503.53;;;8.88;89.49
72685;BME280;61365;52.162;4.500;2023-04-07T01:12:34;101512.25;;;8.86;89.22
72685;BME280;61365;52.162;4.500;2023-04-07T01:14:46;101514.00;;;8.86;89.06
72685;BME280;61365;52.162;4.500;2023-04-07T01:17:16;101503.63;;;8.92;89.22
72685;BME280;61365;52.162;4.500;2023-04-07T01:19:52;101505.53;;;9.01;89.24
72685;BME280;61365;52.162;4.500;2023-04-07T01:22:25;101503.81;;;9.03;88.71
72685;BME280;61365;52.162;4.500;2023-04-07T01:25:04;101508.25;;;9.10;88.85
72685;BME280;61365;52.162;4.500;2023-04-07T01:30:28;101505.63;;;9.07;88.42
72685;BME280;61365;52.162;4.500;2023-04-07T01:32:58;101507.34;;;9.07;88.02
72685;BME280;61365;52.162;4.500;2023-04-07T01:35:25;101510.03;;;9.11;88.47
72685;BME280;61365;52.162;4.500;2023-04-07T01:37:55;101508.09;;;8.99;87.95
72685;BME280;61365;52.162;4.500;2023-04-07T01:40:22;101509.06;;;9.05;87.83
72685;BME280;61365;52.162;4.500;2023-04-07T01:42:50;101503.88;;;9.09;88.65
72685;BME280;61365;52.162;4.500;2023-04-07T01:45:18;101503.13;;;9.15;88.00
72685;BME280;61365;52.162;4.500;2023-04-07T01:47:45;101505.84;;;9.24;88.13
72685;BME280;61365;52.162;4.500;2023-04-07T01:50:12;101514.34;;;9.06;87.51
72685;BME280;61365;52.162;4.500;2023-04-07T01:52:39;101504.72;;;9.07;87.80
72685;BME280;61365;52.162;4.500;2023-04-07T01:55:06;101509.28;;;9.19;87.81
72685;BME280;61365;52.162;4.500;2023-04-07T01:57:34;101510.13;;;9.18;87.11
72685;BME280;61365;52.162;4.500;2023-04-07T02:00:00;101508.31;;;9.13;87.37
72685;BME280;61365;52.162;4.500;2023-04-07T02:02:27;101503.94;;;9.12;87.57
72685;BME280;61365;52.162;4.500;2023-04-07T02:04:54;101498.00;;;9.23;87.73
72685;BME280;61365;52.162;4.500;2023-04-07T02:07:34;101490.00;;;9.13;87.30
72685;BME280;61365;52.162;4.500;2023-04-07T02:10:19;101496.03;;;9.09;87.19
72685;BME280;61365;52.162;4.500;2023-04-07T02:12:48;101502.16;;;9.10;87.11
72685;BME280;61365;52.162;4.500;2023-04-07T02:15:15;101500.56;;;9.18;86.98
72685;BME280;61365;52.162;4.500;2023-04-07T02:17:43;101504.09;;;9.22;86.65
72685;BME280;61365;52.162;4.500;2023-04-07T02:20:13;101510.75;;;9.02;85.99
72685;BME280;61365;52.162;4.500;2023-04-07T02:22:41;101517.06;;;9.15;86.72
72685;BME280;61365;52.162;4.500;2023-04-07T02:25:22;101507.41;;;9.11;85.81
72685;BME280;61365;52.162;4.500;2023-04-07T02:27:48;101517.19;;;9.22;85.17
72685;BME280;61365;52.162;4.500;2023-04-07T02:30:14;101513.66;;;9.18;86.22
72685;BME280;61365;52.162;4.500;2023-04-07T02:32:40;101506.81;;;9.28;86.23
72685;BME280;61365;52.162;4.500;2023-04-07T02:35:07;101518.84;;;9.16;86.17
72685;BME280;61365;52.162;4.500;2023-04-07T02:37:33;101509.47;;;9.31;87.09
72685;BME280;61365;52.162;4.500;2023-04-07T02:39:59;101521.56;;;9.23;86.12
72685;BME280;61365;52.162;4.500;2023-04-07T02:42:25;101512.09;;;9.32;85.98
72685;BME280;61365;52.162;4.500;2023-04-07T02:44:51;101510.28;;;9.27;86.42
72685;BME280;61365;52.162;4.500;2023-04-07T02:47:17;101507.56;;;9.22;86.43
72685;BME280;61365;52.162;4.500;2023-04-07T02:49:43;101506.75;;;9.25;86.63
72685;BME280;61365;52.162;4.500;2023-04-07T02:52:10;101516.50;;;9.35;85.30
72685;BME280;61365;52.162;4.500;2023-04-07T02:54:37;101517.34;;;9.34;86.16
72685;BME280;61365;52.162;4.500;2023-04-07T02:57:03;101507.78;;;9.35;86.08
72685;BME280;61365;52.162;4.500;2023-04-07T02:59:29;101510.34;;;9.30;86.18
72685;BME280;61365;52.162;4.500;2023-04-07T03:01:55;101508.44;;;9.21;85.91
72685;BME280;61365;52.162;4.500;2023-04-07T03:04:21;101511.78;;;9.11;86.48
72685;BME280;61365;52.162;4.500;2023-04-07T03:06:47;101514.25;;;9.01;86.35
72685;BME280;61365;52.162;4.500;2023-04-07T03:09:13;101519.56;;;9.06;86.50
72685;BME280;61365;52.162;4.500;2023-04-07T03:11:40;101521.72;;;9.35;85.51
72685;BME280;61365;52.162;4.500;2023-04-07T03:14:08;101522.16;;;9.05;85.68
72685;BME280;61365;52.162;4.500;2023-04-07T03:16:35;101521.50;;;9.20;86.05
72685;BME280;61365;52.162;4.500;2023-04-07T03:19:01;101530.84;;;9.04;86.63
72685;BME280;61365;52.162;4.500;2023-04-07T03:21:27;101529.09;;;9.02;87.23
72685;BME280;61365;52.162;4.500;2023-04-07T03:23:53;101539.91;;;9.24;86.51
72685;BME280;61365;52.162;4.500;2023-04-07T03:26:20;101526.34;;;8.95;86.45
72685;BME280;61365;52.162;4.500;2023-04-07T03:28:46;101523.72;;;8.95;86.84
72685;BME280;61365;52.162;4.500;2023-04-07T03:31:12;101531.69;;;9.01;86.75
72685;BME280;61365;52.162;4.500;2023-04-07T03:33:38;101530.13;;;9.12;86.72
72685;BME280;61365;52.162;4.500;2023-04-07T03:36:04;101524.69;;;9.00;86.50
72685;BME280;61365;52.162;4.500;2023-04-07T03:38:31;101524.19;;;9.23;85.75
72685;BME280;61365;52.162;4.500;2023-04-07T03:40:57;101526.66;;;9.13;86.20
72685;BME280;61365;52.162;4.500;2023-04-07T03:43:23;101525.31;;;9.40;84.72
72685;BME280;61365;52.162;4.500;2023-04-07T03:45:51;101524.94;;;9.14;85.33
72685;BME280;61365;52.162;4.500;2023-04-07T03:48:18;101519.59;;;9.08;85.82
72685;BME280;61365;52.162;4.500;2023-04-07T03:50:44;101525.75;;;9.11;85.24
72685;BME280;61365;52.162;4.500;2023-04-07T03:53:11;101524.03;;;9.12;84.75
72685;BME280;61365;52.162;4.500;2023-04-07T03:55:40;101523.78;;;8.98;84.90
72685;BME280;61365;52.162;4.500;2023-04-07T03:58:06;101523.16;;;9.14;84.65
72685;BME280;61365;52.162;4.500;2023-04-07T04:00:32;101532.88;;;9.20;84.53
72685;BME280;61365;52.162;4.500;2023-04-07T04:02:59;101526.69;;;9.16;85.04
72685;BME280;61365;52.162;4.500;2023-04-07T04:05:25;101535.53;;;9.23;84.48
72685;BME280;61365;52.162;4.500;2023-04-07T04:07:51;101531.81;;;9.09;84.82
72685;BME280;61365;52.162;4.500;2023-04-07T04:10:18;101531.97;;;9.18;85.55
72685;BME280;61365;52.162;4.500;2023-04-07T04:12:45;101527.66;;;9.22;85.26
72685;BME280;61365;52.162;4.500;2023-04-07T04:15:13;101533.75;;;9.22;84.58
72685;BME280;61365;52.162;4.500;2023-04-07T04:17:40;101533.75;;;9.19;85.12
72685;BME280;61365;52.162;4.500;2023-04-07T04:20:06;101538.94;;;9.16;85.49
72685;BME280;61365;52.162;4.500;2023-04-07T04:22:33;101538.75;;;9.07;85.76
72685;BME280;61365;52.162;4.500;2023-04-07T04:25:00;101541.56;;;9.18;84.81
72685;BME280;61365;52.162;4.500;2023-04-07T04:27:26;101551.34;;;9.28;83.36
72685;BME280;61365;52.162;4.500;2023-04-07T04:29:53;101549.44;;;9.19;84.19
72685;BME280;61365;52.162;4.500;2023-04-07T04:32:19;101544.91;;;9.09;84.50
72685;BME280;61365;52.162;4.500;2023-04-07T04:34:45;101551.84;;;9.07;85.48
72685;BME280;61365;52.162;4.500;2023-04-07T04:37:12;101552.72;;;9.06;85.54
72685;BME280;61365;52.162;4.500;2023-04-07T04:39:38;101553.44;;;8.97;86.08
72685;BME280;61365;52.162;4.500;2023-04-07T04:42:04;101548.13;;;8.92;84.79
72685;BME280;61365;52.162;4.500;2023-04-07T04:44:30;101549.84;;;8.92;85.92
72685;BME280;61365;52.162;4.500;2023-04-07T04:46:56;101553.63;;;9.09;85.08
72685;BME280;61365;52.162;4.500;2023-04-07T04:49:22;101557.94;;;9.06;84.13
72685;BME280;61365;52.162;4.500;2023-04-07T04:51:48;101563.31;;;9.13;84.22
72685;BME280;61365;52.162;4.500;2023-04-07T04:54:15;101562.03;;;8.90;83.95
72685;BME280;61365;52.162;4.500;2023-04-07T04:56:41;101568.41;;;9.04;83.06
72685;BME280;61365;52.162;4.500;2023-04-07T04:59:07;101570.19;;;9.07;82.10
72685;BME280;61365;52.162;4.500;2023-04-07T05:01:33;101564.22;;;9.15;81.65
72685;BME280;61365;52.162;4.500;2023-04-07T05:04:00;101569.50;;;9.17;81.01
72685;BME280;61365;52.162;4.500;2023-04-07T05:06:26;101577.06;;;9.00;82.11
72685;BME280;61365;52.162;4.500;2023-04-07T05:08:52;101574.56;;;9.06;82.17
72685;BME280;61365;52.162;4.500;2023-04-07T05:11:18;101577.97;;;9.02;82.33
72685;BME280;61365;52.162;4.500;2023-04-07T05:13:46;101576.09;;;8.96;82.72
72685;BME280;61365;52.162;4.500;2023-04-07T05:16:12;101576.31;;;9.07;82.68
72685;BME280;61365;52.162;4.500;2023-04-07T05:18:38;101582.66;;;9.22;81.19
72685;BME280;61365;52.162;4.500;2023-04-07T05:21:04;101579.06;;;9.16;80.83
72685;BME280;61365;52.162;4.500;2023-04-07T05:23:30;101580.53;;;9.00;80.15
72685;BME280;61365;52.162;4.500;2023-04-07T05:25:56;101585.72;;;8.97;81.16
72685;BME280;61365;52.162;4.500;2023-04-07T05:28:22;101583.06;;;8.94;81.41
72685;BME280;61365;52.162;4.500;2023-04-07T05:30:49;101584.84;;;8.97;81.64
72685;BME280;61365;52.162;4.500;2023-04-07T05:33:15;101585.91;;;9.08;81.50
72685;BME280;61365;52.162;4.500;2023-04-07T05:35:45;101592.94;;;9.11;81.72
72685;BME280;61365;52.162;4.500;2023-04-07T05:38:11;101584.47;;;9.26;81.31
72685;BME280;61365;52.162;4.500;2023-04-07T05:40:38;101586.81;;;9.10;81.93
72685;BME280;61365;52.162;4.500;2023-04-07T05:43:04;101594.03;;;9.24;82.20
72685;BME280;61365;52.162;4.500;2023-04-07T05:45:30;101584.72;;;9.41;81.22
72685;BME280;61365;52.162;4.500;2023-04-07T05:47:56;101588.34;;;9.50;79.25
72685;BME280;61365;52.162;4.500;2023-04-07T05:50:23;101593.25;;;9.28;79.83
72685;BME280;61365;52.162;4.500;2023-04-07T05:52:49;101587.84;;;9.19;80.68
72685;BME280;61365;52.162;4.500;2023-04-07T05:55:15;101589.66;;;9.23;81.80
72685;BME280;61365;52.162;4.500;2023-04-07T05:57:41;101596.78;;;9.31;81.22
72685;BME280;61365;52.162;4.500;2023-04-07T06:00:07;101596.38;;;9.07;81.60
72685;BME280;61365;52.162;4.500;2023-04-07T06:02:34;101603.03;;;9.41;80.12
72685;BME280;61365;52.162;4.500;2023-04-07T06:05:00;101603.66;;;9.25;81.86
72685;BME280;61365;52.162;4.500;2023-04-07T06:07:26;101610.09;;;9.47;81.65
72685;BME280;61365;52.162;4.500;2023-04-07T06:09:52;101610.22;;;9.52;81.55
72685;BME280;61365;52.162;4.500;2023-04-07T06:12:19;101608.34;;;9.46;81.16
72685;BME280;61365;52.162;4.500;2023-04-07T06:14:54;101620.47;;;9.39;81.92
72685;BME280;61365;52.162;4.500;2023-04-07T06:17:22;101622.41;;;9.50;81.88
72685;BME280;61365;52.162;4.500;2023-04-07T06:19:48;101622.44;;;9.53;82.08
72685;BME280;61365;52.162;4.500;2023-04-07T06:22:14;101632.75;;;9.42;81.85
72685;BME280;61365;52.162;4.500;2023-04-07T06:24:41;101628.59;;;9.55;80.99
72685;BME280;61365;52.162;4.500;2023-04-07T06:27:07;101626.72;;;9.48;81.38
72685;BME280;61365;52.162;4.500;2023-04-07T06:29:33;101628.66;;;9.59;80.33
72685;BME280;61365;52.162;4.500;2023-04-07T06:32:00;101634.72;;;9.55;80.47
72685;BME280;61365;52.162;4.500;2023-04-07T06:34:27;101636.41;;;9.53;80.34
72685;BME280;61365;52.162;4.500;2023-04-07T06:36:53;101638.72;;;9.33;82.05
72685;BME280;61365;52.162;4.500;2023-04-07T06:39:19;101636.59;;;9.64;79.06
72685;BME280;61365;52.162;4.500;2023-04-07T06:41:46;101652.25;;;9.61;77.06
72685;BME280;61365;52.162;4.500;2023-04-07T06:44:12;101643.31;;;9.46;77.38
72685;BME280;61365;52.162;4.500;2023-04-07T06:46:38;101647.13;;;9.66;77.22
72685;BME280;61365;52.162;4.500;2023-04-07T06:49:04;101644.63;;;9.75;75.69
72685;BME280;61365;52.162;4.500;2023-04-07T06:51:30;101651.22;;;9.51;77.69
72685;BME280;61365;52.162;4.500;2023-04-07T06:53:57;101657.19;;;9.42;79.42
72685;BME280;61365;52.162;4.500;2023-04-07T06:56:23;101652.63;;;9.30;78.25
72685;BME280;61365;52.162;4.500;2023-04-07T06:58:49;101660.59;;;9.37;79.31
72685;BME280;61365;52.162;4.500;2023-04-07T07:01:15;101658.03;;;9.40;79.15
72685;BME280;61365;52.162;4.500;2023-04-07T07:03:41;101657.31;;;9.50;79.47
72685;BME280;61365;52.162;4.500;2023-04-07T07:06:07;101662.84;;;9.67;79.16
72685;BME280;61365;52.162;4.500;2023-04-07T07:08:36;101660.06;;;9.56;78.23
72685;BME280;61365;52.162;4.500;2023-04-07T07:11:03;101661.88;;;9.62;78.45
72685;BME280;61365;52.162;4.500;2023-04-07T07:13:29;101666.09;;;9.52;79.25
72685;BME280;61365;52.162;4.500;2023-04-07T07:15:55;101666.47;;;9.75;78.72
72685;BME280;61365;52.162;4.500;2023-04-07T07:18:21;101667.16;;;9.64;79.49
72685;BME280;61365;52.162;4.500;2023-04-07T07:20:47;101672.19;;;9.51;79.31
72685;BME280;61365;52.162;4.500;2023-04-07T07:23:13;101672.47;;;9.67;80.75
72685;BME280;61365;52.162;4.500;2023-04-07T07:25:40;101680.56;;;9.81;79.07
72685;BME280;61365;52.162;4.500;2023-04-07T07:28:06;101672.25;;;10.11;77.70
72685;BME280;61365;52.162;4.500;2023-04-07T07:30:33;101683.38;;;9.95;77.06
72685;BME280;61365;52.162;4.500;2023-04-07T07:33:00;101683.28;;;9.90;76.94
72685;BME280;61365;52.162;4.500;2023-04-07T07:35:26;101683.50;;;10.02;75.48
72685;BME280;61365;52.162;4.500;2023-04-07T07:37:52;101676.59;;;10.07;75.76
72685;BME280;61365;52.162;4.500;2023-04-07T07:40:18;101678.41;;;10.13;76.59
72685;BME280;61365;52.162;4.500;2023-04-07T07:42:44;101681.69;;;10.00;76.35
72685;BME280;61365;52.162;4.500;2023-04-07T07:45:11;101683.69;;;10.16;74.87
72685;BME280;61365;52.162;4.500;2023-04-07T07:47:38;101688.09;;;10.19;74.58
72685;BME280;61365;52.162;4.500;2023-04-07T07:50:05;101687.19;;;10.15;75.41
72685;BME280;61365;52.162;4.500;2023-04-07T07:52:32;101694.28;;;10.24;75.44
72685;BME280;61365;52.162;4.500;2023-04-07T07:54:58;101705.91;;;10.42;74.64
72685;BME280;61365;52.162;4.500;2023-04-07T07:57:24;101702.50;;;10.47;74.19
72685;BME280;61365;52.162;4.500;2023-04-07T07:59:50;101695.78;;;10.70;72.32
72685;BME280;61365;52.162;4.500;2023-04-07T08:02:17;101697.28;;;10.50;72.56
72685;BME280;61365;52.162;4.500;2023-04-07T08:04:43;101701.69;;;10.51;72.54
72685;BME280;61365;52.162;4.500;2023-04-07T08:07:09;101712.81;;;10.35;74.12
72685;BME280;61365;52.162;4.500;2023-04-07T08:09:36;101709.19;;;10.27;75.74
72685;BME280;61365;52.162;4.500;2023-04-07T08:12:03;101711.13;;;10.39;74.82
72685;BME280;61365;52.162;4.500;2023-04-07T08:14:29;101706.09;;;10.54;73.84
72685;BME280;61365;52.162;4.500;2023-04-07T08:16:55;101715.28;;;10.26;75.34
72685;BME280;61365;52.162;4.500;2023-04-07T08:19:21;101708.63;;;10.48;73.64
72685;BME280;61365;52.162;4.500;2023-04-07T08:21:48;101718.28;;;10.50;73.99
72685;BME280;61365;52.162;4.500;2023-04-07T08:24:14;101718.38;;;10.57;74.73
72685;BME280;61365;52.162;4.500;2023-04-07T08:26:41;101724.56;;;10.62;75.42
72685;BME280;61365;52.162;4.500;2023-04-07T08:29:07;101732.72;;;10.84;75.45
72685;BME280;61365;52.162;4.500;2023-04-07T08:31:33;101727.59;;;10.93;73.07
72685;BME280;61365;52.162;4.500;2023-04-07T08:33:59;101728.25;;;10.76;74.60
72685;BME280;61365;52.162;4.500;2023-04-07T08:36:25;101728.19;;;10.73;73.44
72685;BME280;61365;52.162;4.500;2023-04-07T08:38:52;101729.59;;;11.17;70.96
72685;BME280;61365;52.162;4.500;2023-04-07T08:41:20;101732.72;;;10.85;73.04
72685;BME280;61365;52.162;4.500;2023-04-07T08:43:52;101728.97;;;10.63;74.02
72685;BME280;61365;52.162;4.500;2023-04-07T08:46:19;101741.53;;;10.90;74.43
72685;BME280;61365;52.162;4.500;2023-04-07T08:48:50;101739.16;;;11.09;71.32
72685;BME280;61365;52.162;4.500;2023-04-07T08:51:26;101732.19;;;11.14;70.41
72685;BME280;61365;52.162;4.500;2023-04-07T08:54:08;101747.00;;;11.06;71.16
72685;BME280;61365;52.162;4.500;2023-04-07T08:56:38;101756.38;;;10.87;72.42
72685;BME280;61365;52.162;4.500;2023-04-07T08:59:06;101751.13;;;10.88;71.57
72685;BME280;61365;52.162;4.500;2023-04-07T09:01:36;101751.88;;;10.76;73.64
72685;BME280;61365;52.162;4.500;2023-04-07T09:04:03;101751.59;;;10.55;74.87
72685;BME280;61365;52.162;4.500;2023-04-07T09:06:30;101749.25;;;10.76;74.82
72685;BME280;61365;52.162;4.500;2023-04-07T09:08:57;101743.22;;;10.84;74.16
72685;BME280;61365;52.162;4.500;2023-04-07T09:11:24;101755.19;;;11.37;72.03
72685;BME280;61365;52.162;4.500;2023-04-07T09:13:52;101745.50;;;11.31;71.51
72685;BME280;61365;52.162;4.500;2023-04-07T09:16:19;101755.03;;;11.21;71.25
72685;BME280;61365;52.162;4.500;2023-04-07T09:18:45;101750.56;;;11.13;71.90
72685;BME280;61365;52.162;4.500;2023-04-07T09:21:11;101756.94;;;11.38;71.10
72685;BME280;61365;52.162;4.500;2023-04-07T09:23:39;101756.00;;;11.30;73.67
72685;BME280;61365;52.162;4.500;2023-04-07T09:26:19;101764.16;;;11.56;71.52
72685;BME280;61365;52.162;4.500;2023-04-07T09:28:51;101753.78;;;11.75;71.55
72685;BME280;61365;52.162;4.500;2023-04-07T09:31:21;101758.81;;;11.50;72.09
72685;BME280;61365;52.162;4.500;2023-04-07T09:33:50;101759.44;;;11.24;73.78
72685;BME280;61365;52.162;4.500;2023-04-07T09:36:17;101756.75;;;11.19;73.77
72685;BME280;61365;52.162;4.500;2023-04-07T09:38:44;101758.13;;;11.66;71.49
72685;BME280;61365;52.162;4.500;2023-04-07T09:41:12;101762.44;;;11.63;72.08
72685;BME280;61365;52.162;4.500;2023-04-07T09:43:43;101754.13;;;12.12;69.47
72685;BME280;61365;52.162;4.500;2023-04-07T09:46:14;101772.09;;;11.64;70.01
72685;BME280;61365;52.162;4.500;2023-04-07T09:48:42;101767.09;;;11.92;69.77
72685;BME280;61365;52.162;4.500;2023-04-07T09:51:14;101766.69;;;11.48;71.54
72685;BME280;61365;52.162;4.500;2023-04-07T09:53:43;101767.53;;;11.44;70.72
72685;BME280;61365;52.162;4.500;2023-04-07T09:56:15;101772.63;;;11.29;73.07
72685;BME280;61365;52.162;4.500;2023-04-07T09:58:47;101769.28;;;11.44;72.87
72685;BME280;61365;52.162;4.500;2023-04-07T10:01:16;101779.94;;;11.59;73.12
72685;BME280;61365;52.162;4.500;2023-04-07T10:03:43;101777.72;;;12.01;69.62
72685;BME280;61365;52.162;4.500;2023-04-07T10:06:11;101777.22;;;11.48;72.89
72685;BME280;61365;52.162;4.500;2023-04-07T10:08:39;101782.47;;;11.48;72.74
72685;BME280;61365;52.162;4.500;2023-04-07T10:11:07;101784.09;;;11.37;72.60
72685;BME280;61365;52.162;4.500;2023-04-07T10:13:35;101778.88;;;11.40;72.49
72685;BME280;61365;52.162;4.500;2023-04-07T10:16:03;101783.44;;;11.56;72.87
72685;BME280;61365;52.162;4.500;2023-04-07T10:18:31;101779.66;;;11.31;74.56
72685;BME280;61365;52.162;4.500;2023-04-07T10:21:00;101783.63;;;11.75;72.22
72685;BME280;61365;52.162;4.500;2023-04-07T10:26:01;101782.66;;;11.65;72.44
72685;BME280;61365;52.162;4.500;2023-04-07T10:28:31;101788.84;;;11.70;71.50
72685;BME280;61365;52.162;4.500;2023-04-07T10:31:02;101788.00;;;11.76;72.10
72685;BME280;61365;52.162;4.500;2023-04-07T10:33:44;101786.63;;;11.27;73.65
72685;BME280;61365;52.162;4.500;2023-04-07T10:36:16;101800.69;;;11.31;73.97
72685;BME280;61365;52.162;4.500;2023-04-07T10:41:34;101800.91;;;11.51;71.98
72685;BME280;61365;52.162;4.500;2023-04-07T10:44:05;101803.56;;;11.54;71.10
72685;BME280;61365;52.162;4.500;2023-04-07T10:49:11;101803.56;;;11.56;73.82
72685;BME280;61365;52.162;4.500;2023-04-07T10:51:38;101803.75;;;11.73;71.98
72685;BME280;61365;52.162;4.500;2023-04-07T10:54:14;101802.84;;;11.69;73.22
72685;BME280;61365;52.162;4.500;2023-04-07T10:59:30;101806.34;;;11.70;70.84
72685;BME280;61365;52.162;4.500;2023-04-07T11:04:42;101809.50;;;11.35;73.54
72685;BME280;61365;52.162;4.500;2023-04-07T11:07:10;101817.19;;;11.19;74.80
72685;BME280;61365;52.162;4.500;2023-04-07T11:09:38;101813.97;;;11.44;73.54
72685;BME280;61365;52.162;4.500;2023-04-07T11:12:05;101818.22;;;11.31;72.85
72685;BME280;61365;52.162;4.500;2023-04-07T11:14:32;101818.25;;;11.35;71.95
72685;BME280;61365;52.162;4.500;2023-04-07T11:16:59;101815.81;;;10.81;74.31
72685;BME280;61365;52.162;4.500;2023-04-07T11:19:28;101814.41;;;11.07;74.09
72685;BME280;61365;52.162;4.500;2023-04-07T11:22:15;101818.63;;;10.95;74.71
72685;BME280;61365;52.162;4.500;2023-04-07T11:24:41;101819.91;;;11.25;74.06
72685;BME280;61365;52.162;4.500;2023-04-07T11:27:11;101820.28;;;11.61;72.13
72685;BME280;61365;52.162;4.500;2023-04-07T11:29:38;101827.91;;;11.38;71.26
72685;BME280;61365;52.162;4.500;2023-04-07T11:32:04;101826.25;;;11.48;70.43
72685;BME280;61365;52.162;4.500;2023-04-07T11:34:31;101826.09;;;11.32;71.43
72685;BME280;61365;52.162;4.500;2023-04-07T11:37:17;101827.09;;;11.42;72.24
72685;BME280;61365;52.162;4.500;2023-04-07T11:39:49;101830.34;;;11.21;71.53
72685;BME280;61365;52.162;4.500;2023-04-07T11:42:30;101834.28;;;11.62;70.54
72685;BME280;61365;52.162;4.500;2023-04-07T11:44:59;101832.44;;;11.51;71.62
72685;BME280;61365;52.162;4.500;2023-04-07T11:47:38;101835.59;;;12.01;71.25
72685;BME280;61365;52.162;4.500;2023-04-07T11:50:05;101843.66;;;12.18;68.00
72685;BME280;61365;52.162;4.500;2023-04-07T11:52:42;101844.22;;;11.91;69.40
72685;BME280;61365;52.162;4.500;2023-04-07T11:55:18;101841.25;;;12.48;67.68
72685;BME280;61365;52.162;4.500;2023-04-07T11:57:49;101842.97;;;12.45;68.96
72685;BME280;61365;52.162;4.500;2023-04-07T12:00:16;101843.78;;;12.32;66.80
72685;BME280;61365;52.162;4.500;2023-04-07T12:02:43;101846.22;;;12.13;70.20
72685;BME280;61365;52.162;4.500;2023-04-07T12:05:10;101849.66;;;12.05;67.64
72685;BME280;61365;52.162;4.500;2023-04-07T12:07:36;101846.06;;;11.98;67.53
72685;BME280;61365;52.162;4.500;2023-04-07T12:10:23;101855.66;;;11.91;69.53
72685;BME280;61365;52.162;4.500;2023-04-07T12:12:52;101860.28;;;12.15;69.20
72685;BME280;61365;52.162;4.500;2023-04-07T12:15:18;101853.44;;;12.38;67.85
72685;BME280;61365;52.162;4.500;2023-04-07T12:17:45;101853.19;;;12.05;70.12
72685;BME280;61365;52.162;4.500;2023-04-07T12:20:13;101857.81;;;12.36;68.47
72685;BME280;61365;52.162;4.500;2023-04-07T12:22:40;101850.28;;;12.93;65.72
72685;BME280;61365;52.162;4.500;2023-04-07T12:25:06;101852.50;;;12.28;67.98
72685;BME280;61365;52.162;4.500;2023-04-07T12:27:33;101860.25;;;12.09;69.94
72685;BME280;61365;52.162;4.500;2023-04-07T12:29:59;101862.53;;;11.80;70.54
72685;BME280;61365;52.162;4.500;2023-04-07T12:32:26;101870.66;;;12.00;70.47
72685;BME280;61365;52.162;4.500;2023-04-07T12:34:53;101866.09;;;11.83;71.03
72685;BME280;61365;52.162;4.500;2023-04-07T12:37:19;101874.22;;;12.05;69.68
72685;BME280;61365;52.162;4.500;2023-04-07T12:39:45;101870.09;;;12.34;68.76
72685;BME280;61365;52.162;4.500;2023-04-07T12:42:11;101866.56;;;12.30;68.23
72685;BME280;61365;52.162;4.500;2023-04-07T12:44:38;101869.31;;;12.45;68.51
72685;BME280;61365;52.162;4.500;2023-04-07T12:47:04;101872.81;;;12.43;68.74
72685;BME280;61365;52.162;4.500;2023-04-07T12:49:30;101869.16;;;12.28;68.65
72685;BME280;61365;52.162;4.500;2023-04-07T12:51:56;101875.28;;;12.27;68.86
72685;BME280;61365;52.162;4.500;2023-04-07T12:54:23;101881.41;;;12.26;69.26
72685;BME280;61365;52.162;4.500;2023-04-07T12:56:49;101878.94;;;12.42;68.13
72685;BME280;61365;52.162;4.500;2023-04-07T12:59:16;101878.59;;;12.03;69.97
72685;BME280;61365;52.162;4.500;2023-04-07T13:01:42;101879.50;;;12.05;70.54
72685;BME280;61365;52.162;4.500;2023-04-07T13:04:08;101886.66;;;12.22;69.94
72685;BME280;61365;52.162;4.500;2023-04-07T13:06:34;101877.72;;;12.06;70.58
72685;BME280;61365;52.162;4.500;2023-04-07T13:09:00;101887.56;;;12.25;70.85
72685;BME280;61365;52.162;4.500;2023-04-07T13:11:27;101884.72;;;12.04;71.12
72685;BME280;61365;52.162;4.500;2023-04-07T13:13:53;101882.22;;;12.16;70.13
72685;BME280;61365;52.162;4.500;2023-04-07T13:16:19;101892.69;;;12.10;69.88